createdAt,value
2022-08-03T00:01:24.121Z,99169.45
2022-08-03T00:04:34.158Z,99172.45
2022-08-03T00:07:41.289Z,99172.12
2022-08-03T00:10:47.824Z,99171.39
2022-08-03T00:13:54.174Z,99175.69
2022-08-03T00:17:00.787Z,99173.71
2022-08-03T00:20:07.867Z,99173.08
2022-08-03T00:23:13.916Z,99174.62
2022-08-03T00:26:18.306Z,99176.96
2022-08-03T00:29:24.427Z,99177.09
2022-08-03T00:32:30.503Z,99175.92
2022-08-03T00:35:51.056Z,99181.04
2022-08-03T00:38:57.586Z,99183.81
2022-08-03T00:42:06.982Z,99186.67
2022-08-03T00:45:13.622Z,99185.49
2022-08-03T00:48:33.433Z,99185.68
2022-08-03T00:51:39.966Z,99176.81
2022-08-03T00:54:44.643Z,99177.25
2022-08-03T00:57:51.348Z,99179.13
2022-08-03T01:00:57.624Z,99182.61
2022-08-03T01:04:03.934Z,99179.66
2022-08-03T01:07:18.322Z,99178.02
2022-08-03T01:10:37.090Z,99174.32
2022-08-03T01:14:03.589Z,99176.27
2022-08-03T01:17:21.862Z,99177.46
2022-08-03T01:20:34.016Z,99177.69
2022-08-03T01:23:56.732Z,99178.04
2022-08-03T01:27:14.191Z,99180.23
2022-08-03T01:30:20.486Z,99183.59
2022-08-03T01:33:35.759Z,99177.64
2022-08-03T01:36:50.230Z,99178.45
2022-08-03T01:39:57.783Z,99181.91
2022-08-03T01:43:07.849Z,99176.98
2022-08-03T01:46:16.071Z,99182.48
2022-08-03T01:49:22.385Z,99179.31
2022-08-03T01:52:30.340Z,99176.04
2022-08-03T01:55:39.262Z,99174.98
2022-08-03T01:58:47.650Z,99169.30
2022-08-03T02:02:28.813Z,99168.53
2022-08-03T02:05:22.227Z,99167.83
2022-08-03T02:08:30.310Z,99163.05
2022-08-03T02:11:39.002Z,99165.26
2022-08-03T02:14:47.018Z,99161.20
2022-08-03T02:17:54.689Z,99156.77
2022-08-03T02:21:02.443Z,99158.47
2022-08-03T02:24:17.134Z,99162.03
2022-08-03T02:27:30.811Z,99160.35
2022-08-03T02:30:39.735Z,99159.98
2022-08-03T02:33:50.745Z,99158.96
2022-08-03T02:37:00.413Z,99156.86
2022-08-03T02:40:10.822Z,99161.59
2022-08-03T02:43:22.956Z,99157.80
2022-08-03T02:46:48.413Z,99155.52
2022-08-03T02:49:56.085Z,99153.02
2022-08-03T02:53:03.112Z,99155.19
2022-08-03T02:56:11.003Z,99156.63
2022-08-03T02:59:19.527Z,99157.69
2022-08-03T03:02:26.491Z,99155.73
2022-08-03T03:05:52.729Z,99157.73
2022-08-03T03:09:00.754Z,99158.92
2022-08-03T03:12:09.048Z,99158.82
2022-08-03T03:15:15.403Z,99159.59
2022-08-03T03:18:23.211Z,99161.44
2022-08-03T03:21:32.187Z,99164.70
2022-08-03T03:24:39.542Z,99164.91
2022-08-03T03:27:50.790Z,99164.14
2022-08-03T03:30:57.268Z,99167.86
2022-08-03T03:34:04.032Z,99166.69
2022-08-03T03:37:10.279Z,99165.42
2022-08-03T03:40:17.014Z,99164.45
2022-08-03T03:43:24.474Z,99164.95
2022-08-03T03:46:31.326Z,99168.79
2022-08-03T03:49:37.602Z,99172.71
2022-08-03T03:52:43.771Z,99172.08
2022-08-03T03:55:59.540Z,99175.70
2022-08-03T03:59:08.966Z,99177.27
2022-08-03T04:02:15.377Z,99181.58
2022-08-03T04:05:42.878Z,99185.71
2022-08-03T04:09:14.732Z,99188.40
2022-08-03T04:12:24.305Z,99194.70
2022-08-03T04:15:32.784Z,99195.85
2022-08-03T04:18:42.826Z,99198.75
2022-08-03T04:21:53.167Z,99200.52
2022-08-03T04:25:08.519Z,99201.96
2022-08-03T04:28:30.708Z,99202.38
2022-08-03T04:31:39.825Z,99200.79
2022-08-03T04:34:46.606Z,99206.50
2022-08-03T04:37:56.609Z,99206.52
2022-08-03T04:41:03.428Z,99212.48
2022-08-03T04:44:10.586Z,99215.73
2022-08-03T04:47:17.265Z,99216.52
2022-08-03T04:50:25.002Z,99221.08
2022-08-03T04:53:31.761Z,99221.02
2022-08-03T04:56:40.738Z,99228.34
2022-08-03T04:59:49.410Z,99227.45
2022-08-03T05:02:55.938Z,99232.28
2022-08-03T05:06:11.077Z,99234.46
2022-08-03T05:09:16.245Z,99232.73
2022-08-03T05:12:42.695Z,99236.92
2022-08-03T05:15:49.393Z,99235.76
2022-08-03T05:18:55.558Z,99233.89
2022-08-03T05:22:02.056Z,99228.77
2022-08-03T05:25:09.174Z,99232.00
2022-08-03T05:28:23.282Z,99228.67
2022-08-03T05:31:29.422Z,99230.57
2022-08-03T05:34:35.604Z,99231.77
2022-08-03T05:37:42.438Z,99235.41
2022-08-03T05:41:22.580Z,99237.94
2022-08-03T05:44:27.363Z,99239.31
2022-08-03T05:47:33.506Z,99240.70
2022-08-03T05:50:42.770Z,99245.70
2022-08-03T05:53:49.351Z,99246.23
2022-08-03T05:56:55.578Z,99245.89
2022-08-03T06:00:01.852Z,99245.86
2022-08-03T06:03:08.108Z,99248.36
2022-08-03T06:06:14.679Z,99244.77
2022-08-03T06:09:20.790Z,99247.39
2022-08-03T06:12:29.112Z,99247.27
2022-08-03T06:15:35.599Z,99251.10
2022-08-03T06:18:41.936Z,99248.73
2022-08-03T06:21:47.923Z,99248.39
2022-08-03T06:24:54.754Z,99249.48
2022-08-03T06:40:41.258Z,99241.55
2022-08-03T06:44:02.913Z,99242.58
2022-08-03T06:47:10.647Z,99240.74
2022-08-03T06:50:19.045Z,99241.82
2022-08-03T06:53:26.859Z,99244.80
2022-08-03T06:56:33.042Z,99241.33
2022-08-03T07:00:07.774Z,99243.08
2022-08-03T07:03:05.684Z,99241.91
2022-08-03T07:06:12.002Z,99244.36
2022-08-03T07:09:18.125Z,99242.05
2022-08-03T07:12:24.315Z,99245.04
2022-08-03T07:15:55.111Z,99242.48
2022-08-03T07:18:57.216Z,99243.85
2022-08-03T07:22:04.294Z,99240.72
2022-08-03T07:25:12.019Z,99241.88
2022-08-03T07:28:18.224Z,99236.95
2022-08-03T07:31:24.455Z,99240.63
2022-08-03T07:34:30.762Z,99238.39
2022-08-03T07:37:37.072Z,99235.27
2022-08-03T07:40:46.305Z,99236.55
2022-08-03T07:43:52.739Z,99233.31
2022-08-03T07:46:58.919Z,99229.44
2022-08-03T07:50:11.510Z,99229.09
2022-08-03T07:53:17.877Z,99233.04
2022-08-03T07:56:25.017Z,99231.09
2022-08-03T07:59:31.103Z,99230.56
2022-08-03T08:02:57.248Z,99231.61
2022-08-03T08:06:03.410Z,99229.38
2022-08-03T08:09:09.817Z,99229.34
2022-08-03T08:12:16.490Z,99229.20
2022-08-03T08:15:23.005Z,99232.74
2022-08-03T08:18:29.817Z,99228.70
2022-08-03T08:21:53.673Z,99233.52
2022-08-03T08:25:02.329Z,99237.65
2022-08-03T08:28:30.807Z,99237.72
2022-08-03T08:31:34.833Z,99240.04
2022-08-03T08:34:41.089Z,99242.30
2022-08-03T08:37:51.237Z,99235.77
2022-08-03T08:40:59.586Z,99236.30
2022-08-03T08:44:08.297Z,99234.13
2022-08-03T08:47:15.577Z,99231.11
2022-08-03T08:50:27.953Z,99233.21
2022-08-03T08:53:37.419Z,99227.34
2022-08-03T08:56:45.045Z,99229.08
2022-08-03T08:59:54.528Z,99230.70
2022-08-03T09:03:03.973Z,99231.16
2022-08-03T09:06:10.319Z,99229.64
2022-08-03T09:10:08.134Z,99228.23
2022-08-03T09:12:46.511Z,99226.17
2022-08-03T09:16:11.448Z,99231.39
2022-08-03T09:19:17.740Z,99226.89
2022-08-03T09:22:23.933Z,99225.19
2022-08-03T09:25:35.251Z,99224.86
2022-08-03T09:29:00.518Z,99219.77
2022-08-03T09:32:08.528Z,99219.52
2022-08-03T09:35:16.058Z,99219.23
2022-08-03T09:38:24.340Z,99221.59
2022-08-03T09:41:30.494Z,99219.53
2022-08-03T09:44:39.989Z,99216.02
2022-08-03T09:47:46.175Z,99213.80
2022-08-03T09:50:58.677Z,99215.71
2022-08-03T09:54:29.390Z,99213.06
2022-08-03T09:57:35.643Z,99209.54
2022-08-03T10:00:56.954Z,99207.73
2022-08-03T10:04:05.196Z,99207.44
2022-08-03T10:07:12.239Z,99207.32
2022-08-03T10:10:30.226Z,99210.91
2022-08-03T10:13:39.386Z,99207.88
2022-08-03T10:16:46.284Z,99206.23
2022-08-03T10:19:52.687Z,99204.42
2022-08-03T10:22:59.990Z,99204.09
2022-08-03T10:26:09.039Z,99202.45
2022-08-03T10:29:20.266Z,99205.98
2022-08-03T10:32:31.798Z,99204.97
2022-08-03T10:35:41.305Z,99207.48
2022-08-03T10:38:53.415Z,99208.05
2022-08-03T10:42:02.875Z,99204.90
2022-08-03T10:45:16.480Z,99206.54
2022-08-03T10:48:23.711Z,99200.95
2022-08-03T10:51:32.335Z,99195.80
2022-08-03T10:55:07.507Z,99197.25
2022-08-03T10:58:25.202Z,99194.13
2022-08-03T11:02:00.850Z,99190.54
2022-08-03T11:05:30.252Z,99191.13
2022-08-03T11:08:36.993Z,99183.80
2022-08-03T11:11:44.453Z,99178.79
2022-08-03T11:14:51.834Z,99180.07
2022-08-03T11:18:11.717Z,99177.89
2022-08-03T11:21:18.071Z,99182.74
2022-08-03T11:25:00.695Z,99176.61
2022-08-03T11:28:33.770Z,99174.16
2022-08-03T11:31:59.311Z,99173.52
2022-08-03T11:35:13.371Z,99170.90
2022-08-03T11:38:24.766Z,99168.30
2022-08-03T11:41:44.852Z,99165.12
2022-08-03T11:44:52.450Z,99162.21
2022-08-03T11:47:59.491Z,99158.72
2022-08-03T11:51:07.236Z,99157.89
2022-08-03T11:54:13.611Z,99156.92
2022-08-03T11:59:16.469Z,99153.29
2022-08-03T12:01:07.888Z,99146.69
2022-08-03T12:04:13.782Z,99142.42
2022-08-03T12:07:24.978Z,99146.01
2022-08-03T12:10:51.711Z,99147.18
2022-08-03T12:14:50.041Z,99144.34
2022-08-03T12:17:24.305Z,99138.41
2022-08-03T12:20:35.398Z,99135.59
2022-08-03T12:23:41.882Z,99132.87
2022-08-03T12:26:59.303Z,99134.19
2022-08-03T12:30:07.180Z,99135.29
2022-08-03T12:33:29.906Z,99131.69
2022-08-03T12:36:38.301Z,99133.19
2022-08-03T12:40:02.743Z,99131.95
2022-08-03T12:43:17.455Z,99122.23
2022-08-03T12:46:24.178Z,99129.45
2022-08-03T12:49:30.721Z,99130.70
2022-08-03T12:52:46.161Z,99124.07
2022-08-03T12:56:06.065Z,99124.84
2022-08-03T12:59:40.483Z,99123.27
2022-08-03T13:02:56.357Z,99116.95
2022-08-03T13:06:16.194Z,99118.91
2022-08-03T13:09:22.615Z,99119.66
2022-08-03T13:12:30.978Z,99119.61
2022-08-03T13:15:47.651Z,99116.89
2022-08-03T13:18:56.363Z,99111.48
2022-08-03T13:22:04.704Z,99107.61
2022-08-03T13:25:11.350Z,99110.53
2022-08-03T13:28:17.810Z,99109.46
2022-08-03T13:31:23.998Z,99109.63
2022-08-03T13:34:32.515Z,99106.47
2022-08-03T13:37:39.569Z,99105.16
2022-08-03T13:40:46.101Z,99101.48
2022-08-03T13:44:25.121Z,99096.20
2022-08-03T13:47:23.212Z,99092.60
2022-08-03T13:50:30.134Z,99095.84
2022-08-03T14:07:30.699Z,99089.23
2022-08-03T14:10:38.587Z,99088.27
2022-08-03T14:13:44.786Z,99088.85
2022-08-03T14:16:50.927Z,99087.77
2022-08-03T14:20:02.430Z,99085.48
2022-08-03T14:23:20.808Z,99080.22
2022-08-03T14:26:27.993Z,99078.35
2022-08-03T14:29:34.270Z,99079.48
2022-08-03T14:32:40.611Z,99077.92
2022-08-03T14:35:46.915Z,99078.44
2022-08-03T14:38:53.116Z,99075.63
2022-08-03T14:41:59.263Z,99075.05
2022-08-03T14:45:09.566Z,99072.13
2022-08-03T14:50:29.095Z,99066.65
2022-08-03T14:51:54.144Z,99062.27
2022-08-03T14:55:01.410Z,99059.38
2022-08-03T14:58:19.598Z,99057.95
2022-08-03T15:02:02.138Z,99056.22
2022-08-03T15:04:53.716Z,99061.54
2022-08-03T15:07:59.934Z,99056.20
2022-08-03T15:11:06.379Z,99059.16
2022-08-03T15:14:13.471Z,99057.23
2022-08-03T15:17:21.257Z,99055.98
2022-08-03T15:20:42.673Z,99053.91
2022-08-03T15:23:50.419Z,99053.45
2022-08-03T15:26:56.582Z,99052.02
2022-08-03T15:30:10.129Z,99046.43
2022-08-03T15:33:16.715Z,99047.22
2022-08-03T15:36:22.991Z,99049.36
2022-08-03T15:39:29.521Z,99044.80
2022-08-03T15:42:36.308Z,99042.60
2022-08-03T15:45:43.076Z,99044.23
2022-08-03T15:48:49.670Z,99047.15
2022-08-03T15:51:56.486Z,99042.88
2022-08-03T15:55:02.652Z,99044.02
2022-08-03T15:59:10.684Z,99043.00
2022-08-03T16:01:35.014Z,99041.27
2022-08-03T16:04:41.334Z,99040.70
2022-08-03T16:08:02.880Z,99036.52
2022-08-03T16:11:10.312Z,99033.52
2022-08-03T16:14:32.444Z,99031.47
2022-08-03T16:17:42.224Z,99028.77
2022-08-03T16:20:48.734Z,99027.92
2022-08-03T16:23:54.914Z,99025.18
2022-08-03T16:27:02.443Z,99025.31
2022-08-03T16:30:10.339Z,99020.41
2022-08-03T16:33:18.018Z,99021.88
2022-08-03T16:36:24.286Z,99018.57
2022-08-03T16:39:30.471Z,99014.22
2022-08-03T16:42:38.826Z,99017.61
2022-08-03T16:45:45.087Z,99018.81
2022-08-03T16:48:51.154Z,99016.31
2022-08-03T16:51:57.291Z,99018.40
2022-08-03T16:55:05.806Z,99019.22
2022-08-03T16:58:15.344Z,99023.60
2022-08-03T17:01:25.008Z,99029.51
2022-08-03T17:04:41.834Z,99027.70
2022-08-03T17:07:53.859Z,99029.13
2022-08-03T17:11:00.303Z,99029.08
2022-08-03T17:14:09.605Z,99032.82
2022-08-03T17:17:21.766Z,99035.81
2022-08-03T17:20:29.935Z,99035.58
2022-08-03T17:23:46.316Z,99036.55
2022-08-03T17:26:54.676Z,99037.36
2022-08-03T17:30:07.955Z,99038.17
2022-08-03T17:33:20.332Z,99044.52
2022-08-03T17:36:41.877Z,99047.06
2022-08-03T17:39:59.494Z,99051.45
2022-08-03T17:44:14.048Z,99056.33
2022-08-03T17:46:32.388Z,99057.02
2022-08-03T17:49:40.058Z,99059.20
2022-08-03T17:52:50.343Z,99063.88
2022-08-03T17:56:42.431Z,99062.70
2022-08-03T17:59:53.001Z,99063.21
2022-08-03T18:03:18.494Z,99066.20
2022-08-03T18:06:30.421Z,99072.07
2022-08-03T18:10:04.807Z,99076.54
2022-08-03T18:13:12.038Z,99079.54
2022-08-03T18:16:26.099Z,99081.08
2022-08-03T18:20:03.482Z,99085.13
2022-08-03T18:23:04.690Z,99088.11
2022-08-03T18:26:12.686Z,99090.70
2022-08-03T18:29:20.204Z,99095.55
2022-08-03T18:32:29.465Z,99098.93
2022-08-03T18:35:53.388Z,99101.86
2022-08-03T18:39:02.592Z,99102.76
2022-08-03T18:42:09.384Z,99105.67
2022-08-03T18:45:57.190Z,99112.04
2022-08-03T18:49:08.059Z,99117.43
2022-08-03T18:52:27.595Z,99118.87
2022-08-03T18:55:36.666Z,99122.81
2022-08-03T19:02:30.444Z,99128.91
2022-08-03T19:05:56.243Z,99128.09
2022-08-03T19:09:16.968Z,99127.28
2022-08-03T19:12:31.070Z,99135.21
2022-08-03T19:15:51.279Z,99137.03
2022-08-03T19:19:00.634Z,99139.60
2022-08-03T19:22:10.519Z,99137.70
2022-08-03T19:25:17.813Z,99140.52
2022-08-03T19:28:29.985Z,99142.05
2022-08-03T19:31:40.642Z,99140.44
2022-08-03T19:35:13.210Z,99143.13
2022-08-03T19:38:28.594Z,99148.23
2022-08-03T19:41:42.104Z,99152.16
2022-08-03T19:44:56.623Z,99150.20
2022-08-03T19:48:09.952Z,99150.72
2022-08-03T19:51:16.586Z,99153.46
2022-08-03T19:54:29.699Z,99154.75
2022-08-03T19:57:42.249Z,99155.25
2022-08-03T20:00:49.773Z,99152.93
2022-08-03T20:03:55.877Z,99159.16
2022-08-03T20:07:03.014Z,99156.79
2022-08-03T20:10:10.235Z,99153.98
2022-08-03T20:13:19.519Z,99150.91
2022-08-03T20:16:26.145Z,99153.64
2022-08-03T20:19:32.456Z,99154.01
2022-08-03T20:22:43.204Z,99154.61
2022-08-03T20:25:58.611Z,99150.25
2022-08-03T20:29:10.225Z,99149.88
2022-08-03T20:32:17.461Z,99146.77
2022-08-03T20:35:23.804Z,99149.40
2022-08-03T20:38:30.622Z,99143.45
2022-08-03T20:41:37.326Z,99142.35
2022-08-03T20:44:43.622Z,99146.26
2022-08-03T20:48:05.773Z,99143.04
2022-08-03T20:51:19.357Z,99140.09
2022-08-03T20:54:29.325Z,99139.85
2022-08-03T20:57:37.638Z,99146.70
2022-08-03T21:00:47.942Z,99145.41
2022-08-03T21:03:57.504Z,99149.13
2022-08-03T21:07:09.804Z,99150.79
2022-08-03T21:10:28.413Z,99153.28
2022-08-03T21:13:08.888Z,99124.34
2022-08-03T21:13:40.543Z,99161.83
2022-08-03T21:16:51.072Z,99161.16
2022-08-03T21:19:58.551Z,99160.02
2022-08-03T21:23:04.789Z,99161.04
2022-08-03T21:26:12.271Z,99159.80
2022-08-03T21:29:18.913Z,99163.04
2022-08-03T21:32:32.407Z,99161.78
2022-08-03T21:35:39.444Z,99162.69
2022-08-03T21:38:56.877Z,99164.98
2022-08-03T21:42:03.659Z,99166.94
2022-08-03T21:45:17.170Z,99168.23
2022-08-03T21:48:25.662Z,99171.80
2022-08-03T21:51:34.305Z,99168.02
2022-08-03T21:54:42.548Z,99170.44
2022-08-03T21:57:54.846Z,99172.24
2022-08-03T22:01:04.402Z,99173.23
2022-08-03T22:04:11.988Z,99176.41
2022-08-03T22:07:38.280Z,99171.11
2022-08-03T22:10:46.947Z,99168.91
2022-08-03T22:13:53.323Z,99169.42
2022-08-03T22:16:59.722Z,99171.70
2022-08-03T22:20:08.802Z,99172.21
2022-08-03T22:23:21.173Z,99165.98
2022-08-03T22:26:32.283Z,99165.48
2022-08-03T22:29:43.504Z,99170.69
2022-08-03T22:32:50.784Z,99168.94
2022-08-03T22:36:01.556Z,99169.23
2022-08-03T22:39:08.035Z,99171.27
2022-08-03T22:42:15.143Z,99167.06
2022-08-03T22:46:06.981Z,99166.34
2022-08-03T22:48:49.690Z,99164.39
2022-08-03T22:51:57.327Z,99162.30
2022-08-03T22:55:06.577Z,99165.85
2022-08-03T22:58:15.583Z,99166.86
2022-08-03T23:01:24.725Z,99162.09
2022-08-03T23:04:33.094Z,99167.42
2022-08-03T23:07:40.870Z,99166.98
2022-08-03T23:10:49.987Z,99165.59
2022-08-03T23:13:57.870Z,99164.73
2022-08-03T23:17:06.199Z,99167.14
2022-08-03T23:20:14.230Z,99165.85
2022-08-03T23:23:21.754Z,99164.31
2022-08-03T23:26:31.634Z,99161.63
2022-08-03T23:29:39.419Z,99159.45
2022-08-03T23:32:47.017Z,99158.52
2022-08-03T23:36:28.619Z,99159.57
2022-08-03T23:39:35.081Z,99155.48
2022-08-03T23:42:42.496Z,99154.29
2022-08-03T23:45:50.663Z,99154.80
2022-08-03T23:48:58.119Z,99152.48
2022-08-03T23:52:09.926Z,99152.98
2022-08-03T23:55:23.482Z,99154.20
2022-08-03T23:58:43.994Z,99153.39
